Terminal Aerodrome Forecast
Issued by NWS Atlanta, GA

Home | Current Version | Previous Version | Text Only | Print | Product List | Glossary On
Versions: 1 2 3 4 5 6 7 8 9 10 11 12 13 14 15 16 17 18 19 20 21 22 23 24 25 26 27 28 29 30 31 32 33 34 35 36 37 38 39
959
FTUS42 KFFC 221345 AAA
TAFATL
TAF AMD
KATL 221345Z 2214/2318 33011KT P6SM FEW050 SCT120
     FM221600 35012KT P6SM FEW050 BKN120
     FM222100 35008KT P6SM SCT040
     FM230100 03007KT P6SM FEW035
     FM230600 09011KT P6SM SCT035 SCT150=

USA.gov is the U.S. government's official web portal to all federal, state and local government web resources and services.